Terminal Aerodrome Forecast
Issued by NWS Louisville, KY

Home | Current Version | Previous Version | Text Only | Print | Product List | Glossary On
Versions: 1 2 3 4 5 6 7 8 9 10 11 12 13 14 15 16 17 18
000
FTUS43 KLMK 270900 AAA
TAFSDF
TAF AMD
KSDF 270903Z 2709/2812 25008KT P6SM VCSH SCT010 BKN035
      TEMPO 2709/2713 BKN010
     FM271500 33010KT P6SM BKN015
     FM271900 34011G19KT P6SM VCSH BKN035
     FM280000 35012KT P6SM FEW035
     FM280600 28007KT P6SM SKC=

USA.gov is the U.S. government's official web portal to all federal, state and local government web resources and services.